Time;durP1;ratioP1;P1;durP2;ratioP2;P2;SDS_P1;SDS_P2;PMS_P1;PMS_P2;Temp;Humidity;BMP_temperature;BMP_pressure;BME280_temperature;BME280_humidity;BME280_pressure;Samples;Min_cycle;Max_cycle;Signal;HPM_P1;HPM_P2
2023/09/25 00:01:44;;;;;;;3.50;1.80;;;;;;;-145.69;56.95;52173.09;5136238;27;20204;-80
2023/09/25 00:04:12;;;;;;;2.80;1.50;;;;;;;-145.69;56.52;52167.13;5135638;27;20643;-80
2023/09/25 00:06:38;;;;;;;8.40;1.70;;;;;;;-145.69;56.53;52147.34;5135146;27;20309;-80
2023/09/25 00:09:06;;;;;;;5.47;1.60;;;;;;;-145.69;56.85;52186.94;5135277;27;20204;-80
2023/09/25 00:11:32;;;;;;;12.07;2.03;;;;;;;-145.69;56.72;52161.19;5135534;27;20196;-80
2023/09/25 00:13:59;;;;;;;5.00;1.90;;;;;;;-145.69;56.60;52173.09;5135728;27;20204;-80
2023/09/25 00:16:27;;;;;;;3.10;1.50;;;;;;;-145.69;56.35;52190.91;5134967;27;20563;-80
2023/09/25 00:18:53;;;;;;;2.20;1.60;;;;;;;-145.69;55.93;52167.13;5114514;28;20650;-79
2023/09/25 00:21:21;;;;;;;2.70;1.90;;;;;;;-145.69;56.54;52167.13;5114876;28;20578;-79
2023/09/25 00:23:47;;;;;;;2.30;1.53;;;;;;;-145.69;55.45;52204.75;5114906;27;20202;-79
2023/09/25 00:26:14;;;;;;;4.80;1.63;;;;;;;-145.69;55.44;52149.31;5114652;27;20221;-79
2023/09/25 00:28:40;;;;;;;2.73;1.67;;;;;;;-145.69;55.56;52175.06;5132660;27;20197;-79
2023/09/25 00:31:07;;;;;;;5.07;1.70;;;;;;;-145.69;55.34;52202.78;5135006;27;20193;-79
2023/09/25 00:33:34;;;;;;;5.03;1.70;;;;;;;-145.69;55.63;52173.09;5135365;27;20197;-79
2023/09/25 00:36:00;;;;;;;2.30;1.53;;;;;;;-145.69;55.53;52171.09;5134541;27;20204;-80
2023/09/25 00:38:28;;;;;;;3.57;1.70;;;;;;;-145.69;55.42;52175.06;5117777;27;20220;-80
2023/09/25 00:40:54;;;;;;;3.63;1.50;;;;;;;-145.69;54.57;52181.00;5114507;28;20210;-81
2023/09/25 00:43:21;;;;;;;4.27;1.63;;;;;;;-145.69;54.98;52147.34;5114259;28;20202;-80
2023/09/25 00:45:48;;;;;;;4.03;1.70;;;;;;;-145.69;55.14;52165.16;5114469;28;20229;-79
2023/09/25 00:48:25;;;;;;;3.50;1.50;;;;;;;-145.69;54.76;52200.81;5132211;27;20655;-79
2023/09/25 00:50:52;;;;;;;4.40;1.80;;;;;;;-145.69;55.67;52163.19;5134924;27;20264;-80
2023/09/25 00:53:18;;;;;;;3.80;1.60;;;;;;;-145.69;54.86;52157.25;5134855;27;20200;-80
2023/09/25 00:55:47;;;;;;;6.47;1.63;;;;;;;-145.69;54.78;52139.41;5118577;27;20205;-82
2023/09/25 00:58:14;;;;;;;3.80;1.80;;;;;;;-145.69;55.04;52169.13;5128959;27;20265;-80
2023/09/25 01:00:40;;;;;;;5.93;1.60;;;;;;;-145.69;54.59;52163.19;5134654;27;20205;-79
2023/09/25 01:03:07;;;;;;;3.97;1.60;;;;;;;-145.69;54.18;52165.16;5134476;27;20627;-80
2023/09/25 01:05:36;;;;;;;5.10;1.80;;;;;;;-145.69;54.79;52165.16;5134280;27;20706;-83
2023/09/25 01:08:03;;;;;;;3.37;1.47;;;;;;;-145.69;54.58;52163.19;5120057;27;20557;-80
2023/09/25 01:10:29;;;;;;;7.20;1.50;;;;;;;-145.69;54.32;52163.19;5131165;27;20620;-80
2023/09/25 01:12:57;;;;;;;3.53;1.60;;;;;;;-145.69;54.21;52159.22;5129145;27;20193;-81
2023/09/25 01:15:24;;;;;;;4.60;1.60;;;;;;;-145.69;53.88;52143.38;5121953;27;20228;-80
2023/09/25 01:17:51;;;;;;;4.43;1.80;;;;;;;-145.69;53.65;52169.13;5123583;27;20525;-81
2023/09/25 01:20:18;;;;;;;5.67;1.80;;;;;;;-145.69;53.92;52131.50;5128141;27;20288;-79
2023/09/25 01:22:48;;;;;;;3.87;1.63;;;;;;;-145.69;53.38;52153.28;5121701;27;20315;-80
2023/09/25 01:25:16;;;;;;;4.43;1.60;;;;;;;-145.69;53.42;52147.34;5113813;28;20790;-80
2023/09/25 01:27:44;;;;;;;6.70;1.70;;;;;;;-145.69;53.00;52143.38;5114093;28;20239;-81
2023/09/25 01:30:13;;;;;;;3.70;1.60;;;;;;;-145.69;52.83;52175.06;5124283;27;20189;-79
2023/09/25 01:32:42;;;;;;;5.93;1.80;;;;;;;-145.69;53.28;52141.41;5134382;27;20204;-79
2023/09/25 01:35:13;;;;;;;2.00;1.47;;;;;;;-145.69;53.33;52147.34;5128421;27;20277;-80
2023/09/25 01:37:40;;;;;;;4.63;1.40;;;;;;;-145.69;53.51;52163.19;5113928;28;20587;-80
2023/09/25 01:40:15;;;;;;;6.27;1.70;;;;;;;-145.69;53.61;52155.25;5113420;28;20205;-82
2023/09/25 01:42:42;;;;;;;4.23;1.60;;;;;;;-145.69;52.80;52145.34;5113876;28;20197;-80
2023/09/25 01:45:10;;;;;;;3.47;1.70;;;;;;;-145.69;52.79;52149.31;5113490;28;20197;-80
2023/09/25 01:47:37;;;;;;;5.43;1.60;;;;;;;-145.69;52.65;52210.72;5113500;28;20197;-80
2023/09/25 01:50:08;;;;;;;3.67;1.73;;;;;;;-145.69;53.12;52169.13;5123200;28;20196;-80
2023/09/25 01:52:35;;;;;;;5.40;2.00;;;;;;;-145.69;53.15;52151.28;5134214;27;20295;-79
2023/09/25 01:55:02;;;;;;;2.93;1.67;;;;;;;-145.69;52.95;52181.00;5115839;27;20194;-81
2023/09/25 01:57:31;;;;;;;5.37;1.83;;;;;;;-145.69;52.95;52175.06;5113439;28;20251;-80
2023/09/25 01:59:57;;;;;;;4.03;2.47;;;;;;;-145.69;53.04;52173.09;5114849;28;20201;-79
2023/09/25 02:02:24;;;;;;;5.03;1.80;;;;;;;-145.69;53.37;52194.88;5135376;27;20192;-80
2023/09/25 02:04:50;;;;;;;6.27;1.63;;;;;;;-145.69;52.72;52131.50;5125049;27;20548;-80
2023/09/25 02:07:18;;;;;;;4.33;1.43;;;;;;;-145.69;52.87;52190.91;5117493;28;20691;-79
2023/09/25 02:09:45;;;;;;;3.27;1.50;;;;;;;-145.69;53.49;52171.09;5124234;27;20196;-80
2023/09/25 02:12:12;;;;;;;8.77;1.80;;;;;;;-145.69;53.15;52167.13;5129183;27;20190;-80
2023/09/25 02:14:40;;;;;;;2.40;1.50;;;;;;;-145.69;53.50;52186.94;5128261;27;20196;-80
2023/09/25 02:17:06;;;;;;;7.87;1.60;;;;;;;-145.69;52.98;52181.00;5137672;27;20215;-79
2023/09/25 02:19:33;;;;;;;3.47;1.70;;;;;;;-145.69;52.90;52165.16;5136003;27;20265;-81
2023/09/25 02:21:59;;;;;;;4.27;1.70;;;;;;;-145.69;52.79;52155.25;5128132;27;20208;-80
2023/09/25 02:24:25;;;;;;;4.47;1.57;;;;;;;-145.69;52.64;52186.94;5117524;28;20212;-79
2023/09/25 02:26:52;;;;;;;3.03;1.67;;;;;;;-145.69;53.32;52186.94;5117122;28;20712;-80
2023/09/25 02:29:20;;;;;;;2.17;1.23;;;;;;;-145.69;52.51;52204.75;5118977;27;20212;-80
2023/09/25 02:31:48;;;;;;;3.40;1.50;;;;;;;-145.69;52.68;52159.22;5101958;27;20190;-79
2023/09/25 02:34:16;;;;;;;3.17;1.10;;;;;;;-145.69;52.47;52159.22;5137690;27;20200;-80
2023/09/25 02:36:43;;;;;;;3.07;1.50;;;;;;;-145.69;52.40;52139.41;5137313;27;20197;-79
2023/09/25 02:39:10;;;;;;;2.73;1.50;;;;;;;-145.69;52.35;52151.28;5135827;27;20208;-79
2023/09/25 02:41:37;;;;;;;2.40;1.37;;;;;;;-145.69;52.43;52137.44;5117047;28;20201;-79
2023/09/25 02:44:03;;;;;;;7.03;1.50;;;;;;;-145.69;53.03;52159.22;5131698;27;20224;-78
2023/09/25 02:46:30;;;;;;;4.47;1.70;;;;;;;-145.69;53.16;52153.28;5137489;27;20232;-79
2023/09/25 02:48:58;;;;;;;2.97;1.43;;;;;;;-145.69;53.22;52151.28;5137133;27;20208;-80
2023/09/25 02:51:24;;;;;;;3.13;1.30;;;;;;;-145.69;54.15;52167.13;5117172;27;20197;-80
2023/09/25 02:53:51;;;;;;;6.93;1.87;;;;;;;-145.69;54.05;52147.34;5120239;27;20196;-78
2023/09/25 02:56:18;;;;;;;4.80;1.67;;;;;;;-145.69;53.40;52151.28;5116339;28;20676;-80
2023/09/25 02:58:45;;;;;;;3.00;1.53;;;;;;;-145.69;53.70;52163.19;5116457;28;20893;-80
2023/09/25 03:01:11;;;;;;;6.40;1.70;;;;;;;-145.69;53.32;52165.16;5133932;27;20224;-79
2023/09/25 03:03:40;;;;;;;3.20;1.53;;;;;;;-145.69;53.70;52163.19;5136552;27;20189;-80
2023/09/25 03:06:07;;;;;;;4.20;1.67;;;;;;;-145.69;53.53;52167.13;5136725;27;20232;-79
2023/09/25 03:08:34;;;;;;;3.63;1.60;;;;;;;-145.69;53.31;52163.19;5136875;27;20192;-79
2023/09/25 03:11:01;;;;;;;2.00;1.00;;;;;;;-145.69;53.89;52188.91;5120207;27;20284;-79
2023/09/25 03:13:27;;;;;;;3.00;1.50;;;;;;;-145.69;53.63;52186.94;5123063;27;20193;-79
2023/09/25 03:15:54;;;;;;;3.07;1.57;;;;;;;-145.69;54.10;52147.34;5116129;28;20202;-79
2023/09/25 03:18:21;;;;;;;3.07;1.40;;;;;;;-145.69;54.66;52206.75;5116138;28;20600;-79
2023/09/25 03:20:47;;;;;;;2.80;1.30;;;;;;;-145.69;54.37;52177.03;5129279;27;20197;-79
2023/09/25 03:23:15;;;;;;;2.47;1.30;;;;;;;-145.69;54.57;52167.13;5136061;27;20193;-79
2023/09/25 03:25:42;;;;;;;3.23;1.57;;;;;;;-145.69;55.96;52184.97;5135254;27;20429;-80
2023/09/25 03:28:09;;;;;;;4.33;1.67;;;;;;;-145.69;55.53;52175.06;5136392;27;20208;-79
2023/09/25 03:30:35;;;;;;;1.97;1.20;;;;;;;-145.69;55.27;52186.94;5125333;27;20201;-81
2023/09/25 03:33:02;;;;;;;5.90;1.73;;;;;;;-145.69;55.11;52179.03;5129237;27;20192;-78
2023/09/25 03:35:28;;;;;;;3.83;1.73;;;;;;;-145.69;55.29;52198.81;5136119;27;20246;-79
2023/09/25 03:37:54;;;;;;;4.87;1.57;;;;;;;-145.69;55.44;52196.84;5135849;27;20201;-80
2023/09/25 03:40:22;;;;;;;4.13;1.50;;;;;;;-145.69;55.30;52179.03;5127320;27;20623;-79
2023/09/25 03:42:49;;;;;;;2.13;1.50;;;;;;;-145.69;55.78;52186.94;5136273;27;20589;-79
2023/09/25 03:45:15;;;;;;;2.67;1.40;;;;;;;-145.69;55.05;52149.31;5135825;27;20196;-79
2023/09/25 03:47:41;;;;;;;3.80;1.30;;;;;;;-145.69;55.80;52177.03;5135962;27;20223;-79
2023/09/25 03:50:09;;;;;;;3.73;1.47;;;;;;;-145.69;55.99;52188.91;5128298;27;20193;-81
2023/09/25 03:52:36;;;;;;;4.77;1.70;;;;;;;-145.69;55.38;52184.97;5134503;27;20698;-79
2023/09/25 03:55:02;;;;;;;3.23;1.40;;;;;;;-145.69;55.41;52179.03;5135749;27;20193;-79
2023/09/25 03:57:30;;;;;;;2.83;1.43;;;;;;;-145.69;55.28;52151.28;5135712;27;20222;-80
2023/09/25 03:59:56;;;;;;;5.37;1.60;;;;;;;-145.69;55.37;52173.09;5129153;27;20197;-80
2023/09/25 04:02:23;;;;;;;4.67;1.47;;;;;;;-145.69;55.74;52167.13;5135701;27;20201;-79
2023/09/25 04:04:49;;;;;;;1.67;1.30;;;;;;;-145.69;55.31;52169.13;5135478;27;20208;-79
2023/09/25 04:07:16;;;;;;;1.40;1.00;;;;;;;-145.69;55.86;52175.06;5117689;27;20225;-79
2023/09/25 04:09:43;;;;;;;2.50;1.47;;;;;;;-145.69;55.65;52161.19;5121192;27;20197;-79
2023/09/25 04:12:09;;;;;;;2.87;1.50;;;;;;;-145.69;55.79;52179.03;5126287;27;20200;-79
2023/09/25 04:14:37;;;;;;;2.60;1.40;;;;;;;-145.69;55.62;52149.31;5134404;27;20220;-79
2023/09/25 04:17:04;;;;;;;3.93;1.53;;;;;;;-145.69;55.89;52171.09;5135555;27;20203;-79
2023/09/25 04:19:30;;;;;;;3.97;1.60;;;;;;;-145.69;56.54;52208.72;5133486;27;20229;-79
2023/09/25 04:21:59;;;;;;;5.03;1.37;;;;;;;-145.69;57.10;52175.06;5114197;28;20225;-80
2023/09/25 04:24:25;;;;;;;2.83;1.53;;;;;;;-145.69;57.12;52200.81;5113893;28;20675;-80
2023/09/25 04:26:53;;;;;;;3.37;1.60;;;;;;;-145.69;56.81;52186.94;5114687;28;20244;-79
2023/09/25 04:29:19;;;;;;;3.00;1.60;;;;;;;-145.69;57.19;52190.91;5119200;27;20196;-79
2023/09/25 04:31:47;;;;;;;2.50;1.47;;;;;;;-145.69;57.05;52165.16;5133544;27;20193;-79
2023/09/25 04:34:14;;;;;;;2.57;1.60;;;;;;;-145.69;57.15;52179.03;5111348;28;20209;-80
2023/09/25 04:36:40;;;;;;;4.30;1.67;;;;;;;-145.69;57.75;52177.03;5114603;28;20204;-79
2023/09/25 04:39:10;;;;;;;2.73;1.67;;;;;;;-145.69;57.79;52218.63;5117057;27;20221;-79
2023/09/25 04:41:36;;;;;;;4.70;1.67;;;;;;;-145.69;59.07;52226.53;5114617;28;20201;-79
2023/09/25 04:44:04;;;;;;;4.23;1.93;;;;;;;-145.69;59.01;52208.72;5114320;28;20198;-78
2023/09/25 04:46:31;;;;;;;4.60;1.50;;;;;;;-145.69;59.26;52216.66;5114413;28;20236;-80
2023/09/25 04:49:00;;;;;;;7.00;1.53;;;;;;;-145.69;59.47;52198.81;5125006;27;20201;-79
2023/09/25 04:51:26;;;;;;;2.13;1.37;;;;;;;-145.69;59.49;52190.91;5114563;28;20205;-80
2023/09/25 04:53:53;;;;;;;2.73;1.50;;;;;;;-145.69;60.16;52202.78;5114362;28;20197;-78
2023/09/25 04:56:20;;;;;;;3.53;1.60;;;;;;;-145.69;60.31;52206.75;5114062;27;20252;-79
2023/09/25 04:58:47;;;;;;;4.80;1.70;;;;;;;-145.69;60.71;52198.81;5124679;27;20232;-80
2023/09/25 05:01:14;;;;;;;3.00;1.53;;;;;;;-145.69;61.24;52196.84;5113840;28;20193;-80
2023/09/25 05:03:41;;;;;;;4.70;1.70;;;;;;;-145.69;61.31;52208.72;5113797;28;20197;-79
2023/09/25 05:06:10;;;;;;;4.23;1.73;;;;;;;-145.69;61.69;52202.78;5113509;28;20266;-79
2023/09/25 05:08:38;;;;;;;5.83;1.87;;;;;;;-145.69;61.86;52190.91;5125702;27;20196;-80
2023/09/25 05:11:05;;;;;;;3.37;1.67;;;;;;;-145.69;61.61;52194.88;5118396;27;20189;-79
2023/09/25 05:13:32;;;;;;;2.43;1.50;;;;;;;-145.69;62.74;52186.94;5113775;28;20649;-79
2023/09/25 05:15:58;;;;;;;2.53;1.63;;;;;;;-145.69;63.31;52208.72;5116549;27;20199;-79
2023/09/25 05:18:24;;;;;;;3.37;1.50;;;;;;;-145.69;63.26;52196.84;5134104;27;20232;-79
2023/09/25 05:20:51;;;;;;;2.90;1.83;;;;;;;-145.69;63.61;52198.81;5121173;27;20651;-80
2023/09/25 05:23:20;;;;;;;3.23;1.63;;;;;;;-145.69;63.39;52190.91;5113885;28;20209;-79
2023/09/25 05:25:46;;;;;;;3.77;1.80;;;;;;;-145.69;63.52;52202.78;5113930;28;20274;-80
2023/09/25 05:28:13;;;;;;;2.40;1.60;;;;;;;-145.69;63.42;52224.56;5134179;27;20224;-79
2023/09/25 05:30:40;;;;;;;3.80;2.00;;;;;;;-145.69;64.74;52177.03;5131467;27;20830;-79
2023/09/25 05:33:06;;;;;;;2.80;1.97;;;;;;;-145.69;64.89;52171.09;5133874;27;20201;-79
2023/09/25 05:35:33;;;;;;;2.90;1.67;;;;;;;-145.69;64.64;52198.81;5120167;27;20197;-79
2023/09/25 05:37:59;;;;;;;4.57;1.70;;;;;;;-145.69;64.46;52224.56;5113591;28;20288;-79
2023/09/25 05:40:27;;;;;;;2.53;1.90;;;;;;;-145.69;64.69;52192.88;5116753;27;20197;-79
2023/09/25 05:42:53;;;;;;;4.70;1.90;;;;;;;-145.69;64.89;52206.75;5113111;28;20220;-79
2023/09/25 05:45:21;;;;;;;4.27;1.80;;;;;;;-145.69;64.88;52212.69;5123784;27;20192;-79
2023/09/25 05:47:48;;;;;;;3.67;1.60;;;;;;;-145.69;64.72;52220.59;5134122;27;20232;-80
2023/09/25 05:50:14;;;;;;;2.47;1.60;;;;;;;-145.69;65.40;52171.09;5118064;27;20226;-79
2023/09/25 05:52:41;;;;;;;5.50;1.90;;;;;;;-145.69;65.42;52226.53;5113459;28;20197;-80
2023/09/25 05:55:08;;;;;;;3.60;1.80;;;;;;;-145.69;65.36;52210.72;5121939;28;20659;-80
2023/09/25 05:57:36;;;;;;;3.20;1.60;;;;;;;-145.69;65.72;52206.75;5133978;27;20197;-79
2023/09/25 06:00:10;;;;;;;4.20;1.93;;;;;;;-145.69;66.22;52192.88;5132740;27;20647;-80
2023/09/25 06:02:36;;;;;;;3.60;1.90;;;;;;;-145.69;66.33;52234.47;5104581;27;20194;-79
2023/09/25 06:05:03;;;;;;;4.97;2.00;;;;;;;-145.69;66.71;52214.66;5133977;27;20205;-79
2023/09/25 06:07:30;;;;;;;3.67;1.67;;;;;;;-145.69;66.47;52196.84;5133816;27;20575;-80
2023/09/25 06:09:56;;;;;;;6.77;2.07;;;;;;;-145.69;66.48;52198.81;5133503;27;20235;-79
2023/09/25 06:12:23;;;;;;;3.90;1.90;;;;;;;-145.69;66.55;52179.03;5115824;27;20197;-79
2023/09/25 06:14:50;;;;;;;4.07;2.20;;;;;;;-145.69;66.01;52204.75;5127489;28;20207;-80
2023/09/25 06:17:17;;;;;;;4.80;2.07;;;;;;;-145.69;66.84;52220.59;5113132;27;20205;-79
2023/09/25 06:19:43;;;;;;;3.07;1.90;;;;;;;-145.69;66.40;52234.47;5121217;28;20220;-78
2023/09/25 06:22:10;;;;;;;3.40;1.83;;;;;;;-145.69;66.19;52234.47;5123115;27;20204;-79
2023/09/25 06:24:36;;;;;;;5.67;1.67;;;;;;;-145.69;66.70;52220.59;5109913;28;20205;-79
2023/09/25 06:27:02;;;;;;;2.83;1.67;;;;;;;-145.69;66.17;52232.50;5123288;28;20217;-79
2023/09/25 06:29:29;;;;;;;4.53;1.80;;;;;;;-145.69;66.31;52194.88;5122182;27;20201;-79
2023/09/25 06:31:57;;;;;;;2.13;1.60;;;;;;;-145.69;66.55;52200.81;5120066;28;20200;-80
2023/09/25 06:34:23;;;;;;;4.23;2.10;;;;;;;-145.69;66.62;52234.47;5133360;27;20196;-79
2023/09/25 06:36:50;;;;;;;3.30;1.70;;;;;;;-145.69;66.43;52214.66;5133302;27;20201;-79
2023/09/25 06:39:17;;;;;;;2.90;1.53;;;;;;;-145.69;66.71;52210.72;5127165;27;20205;-79
2023/09/25 06:41:43;;;;;;;3.00;1.70;;;;;;;-145.69;66.62;52222.59;5117534;28;20200;-79
2023/09/25 06:44:12;;;;;;;6.03;1.77;;;;;;;-145.69;67.33;52190.91;5133057;27;20196;-79
2023/09/25 06:46:38;;;;;;;3.13;1.93;;;;;;;-145.69;67.20;52214.66;5134152;27;20208;-79
2023/09/25 06:49:06;;;;;;;3.10;1.70;;;;;;;-145.69;66.62;52184.97;5133403;27;20276;-79
2023/09/25 06:51:33;;;;;;;4.20;2.10;;;;;;;-145.69;66.55;52212.69;5120085;27;20189;-79
2023/09/25 06:53:59;;;;;;;3.30;1.80;;;;;;;-145.69;66.85;52214.66;5136679;27;20193;-79
2023/09/25 06:56:26;;;;;;;3.10;1.83;;;;;;;-145.69;66.21;52202.78;5136836;27;20205;-79
2023/09/25 06:58:52;;;;;;;3.30;1.90;;;;;;;-145.69;66.33;52216.66;5134981;27;20201;-79
2023/09/25 07:01:20;;;;;;;3.77;1.80;;;;;;;-145.69;66.23;52210.72;5117478;27;20206;-79
2023/09/25 07:03:46;;;;;;;3.97;2.27;;;;;;;-145.69;66.41;52184.97;5136575;27;20188;-79
2023/09/25 07:06:14;;;;;;;2.27;1.50;;;;;;;-145.69;66.47;52181.00;5136926;27;20249;-80
2023/09/25 07:08:41;;;;;;;4.37;2.07;;;;;;;-145.69;66.43;52202.78;5136466;27;20248;-79
2023/09/25 07:11:07;;;;;;;3.53;1.87;;;;;;;-145.69;65.84;52190.91;5116489;27;20206;-80
2023/09/25 07:13:34;;;;;;;3.40;2.20;;;;;;;-145.69;65.60;52210.72;5116366;27;20201;-80
2023/09/25 07:16:04;;;;;;;2.57;1.57;;;;;;;-145.69;64.49;52196.84;5115868;28;20201;-79
2023/09/25 07:18:31;;;;;;;3.33;1.90;;;;;;;-145.69;65.25;52184.97;5115727;28;20221;-79
2023/09/25 07:20:57;;;;;;;3.03;1.70;;;;;;;-145.69;64.92;52194.88;5134633;27;20197;-80
2023/09/25 07:23:25;;;;;;;3.60;1.57;;;;;;;-145.69;64.28;52186.94;5118204;27;20201;-79
2023/09/25 07:26:01;;;;;;;3.07;1.87;;;;;;;-145.69;63.76;52194.88;5115725;28;20247;-80
2023/09/25 07:28:28;;;;;;;4.60;1.80;;;;;;;-145.69;62.89;52186.94;5115892;28;20229;-79
2023/09/25 07:30:55;;;;;;;3.53;1.90;;;;;;;-145.69;63.06;52175.06;5133789;27;20275;-79
2023/09/25 07:33:22;;;;;;;4.57;1.97;;;;;;;-145.69;63.02;52186.94;5118375;27;20229;-79
2023/09/25 07:35:48;;;;;;;4.90;2.07;;;;;;;-145.69;62.71;52181.00;5115322;28;20663;-79
2023/09/25 07:38:15;;;;;;;5.13;1.73;;;;;;;-145.69;61.67;52177.03;5115856;27;20224;-80
2023/09/25 07:40:44;;;;;;;3.20;1.73;;;;;;;-145.69;61.06;52155.25;5122605;27;20197;-79
2023/09/25 07:43:11;;;;;;;3.27;2.00;;;;;;;-145.69;60.85;52163.19;5115741;28;20208;-79
2023/09/25 07:45:38;;;;;;;4.57;1.60;;;;;;;-145.69;59.99;52105.75;5115539;28;20194;-79
2023/09/25 07:48:06;;;;;;;2.83;1.60;;;;;;;-145.69;60.30;52202.78;5115356;28;20225;-79
2023/09/25 07:50:34;;;;;;;1.93;1.43;;;;;;;-145.69;58.61;52155.25;5122777;27;20225;-79
2023/09/25 07:53:01;;;;;;;3.43;1.37;;;;;;;-145.69;59.16;52153.28;5115525;28;20197;-79
2023/09/25 07:55:28;;;;;;;4.80;1.80;;;;;;;-145.69;58.35;52163.19;5114583;28;20560;-79
2023/09/25 07:57:56;;;;;;;3.90;2.10;;;;;;;-145.69;59.08;52145.34;5114452;28;20206;-79
2023/09/25 08:00:23;;;;;;;2.80;1.50;;;;;;;-145.69;59.11;52139.41;5122517;27;20242;-79
2023/09/25 08:02:51;;;;;;;5.72;1.67;;;;;;;-145.69;58.09;52145.34;5117713;27;20284;-78
2023/09/25 08:05:18;;;;;;;4.05;1.63;;;;;;;-145.69;57.63;52167.13;5116143;27;20224;-79
2023/09/25 08:07:45;;;;;;;5.28;1.60;;;;;;;-145.69;56.46;52143.38;5134190;27;20311;-78
2023/09/25 08:10:12;;;;;;;3.42;1.80;;;;;;;-145.69;57.83;52165.16;5134926;27;20212;-78
2023/09/25 08:12:39;;;;;;;3.30;1.75;;;;;;;-145.69;57.66;52135.47;5130600;27;20193;-78
2023/09/25 08:15:08;;;;;;;4.38;1.70;;;;;;;-145.69;57.34;52131.50;5114978;28;20584;-79
2023/09/25 08:17:35;;;;;;;3.55;1.45;;;;;;;-145.69;57.19;52163.19;5114789;28;20200;-78
2023/09/25 08:20:13;;;;;;;3.50;1.60;;;;;;;-145.69;57.14;52129.50;5115356;27;20221;-79
2023/09/25 08:22:40;;;;;;;3.13;1.48;;;;;;;-145.69;57.43;52133.47;5135342;27;20715;-79
2023/09/25 08:25:08;;;;;;;3.13;1.40;;;;;;;-145.69;57.38;52145.34;5133404;27;20189;-79
2023/09/25 08:27:34;;;;;;;3.22;1.45;;;;;;;-145.69;57.40;52107.72;5108424;27;20300;-78
2023/09/25 08:30:01;;;;;;;3.15;1.70;;;;;;;-145.69;58.20;52155.25;5125564;27;20479;-79
2023/09/25 08:32:29;;;;;;;8.20;1.73;;;;;;;-145.69;55.97;52147.34;5129641;27;20196;-79
2023/09/25 08:34:55;;;;;;;4.47;1.55;;;;;;;-145.69;57.11;52123.56;5135346;27;20200;-78
2023/09/25 08:37:22;;;;;;;3.38;1.63;;;;;;;-145.69;55.69;52147.34;5128543;27;20309;-78
2023/09/25 08:39:48;;;;;;;2.85;1.50;;;;;;;-145.69;55.18;52137.44;5126323;27;20197;-78
2023/09/25 08:42:16;;;;;;;3.28;1.45;;;;;;;-145.69;54.88;52113.66;5135030;27;20196;-78
2023/09/25 08:44:43;;;;;;;3.72;1.48;;;;;;;-145.69;54.64;52107.72;5135132;27;20212;-79
2023/09/25 08:47:10;;;;;;;3.05;1.40;;;;;;;-145.69;54.96;52137.44;5135136;27;20231;-78
2023/09/25 08:49:42;;;;;;;5.63;1.70;;;;;;;-145.69;54.56;52127.53;5133779;27;20203;-79
2023/09/25 08:52:08;;;;;;;2.65;1.60;;;;;;;-145.69;54.90;52131.50;5135077;27;20192;-78
2023/09/25 08:54:37;;;;;;;3.65;1.55;;;;;;;-145.69;55.19;52139.41;5134718;27;20192;-79
2023/09/25 08:57:12;;;;;;;4.20;1.50;;;;;;;-145.69;54.83;52127.53;5131783;27;20231;-78
2023/09/25 08:59:39;;;;;;;5.80;1.90;;;;;;;-145.69;55.64;52115.66;5114320;28;20197;-79
2023/09/25 09:02:12;;;;;;;6.70;2.08;;;;;;;-145.69;54.42;52113.66;5128978;27;20228;-79
2023/09/25 09:04:40;;;;;;;2.70;1.20;;;;;;;-145.69;54.34;52149.31;5126757;27;20281;-79
2023/09/25 09:07:08;;;;;;;6.15;1.70;;;;;;;-145.69;55.26;52131.50;5115846;27;20207;-78
2023/09/25 09:09:35;;;;;;;2.03;1.55;;;;;;;-145.69;54.19;52123.56;5134100;27;20221;-79
2023/09/25 09:12:07;;;;;;;3.08;1.77;;;;;;;-145.69;54.46;52103.78;5132533;27;20224;-79
2023/09/25 09:14:34;;;;;;;2.85;1.40;;;;;;;-145.69;53.07;52119.63;5134562;27;20200;-79
2023/09/25 09:17:16;;;;;;;2.45;1.40;;;;;;;-145.69;53.55;52070.09;5133346;27;20245;-78
2023/09/25 09:19:53;;;;;;;4.22;1.35;;;;;;;-145.69;50.47;52064.16;5131529;27;20220;-80
2023/09/25 09:22:21;;;;;;;1.85;1.00;;;;;;;-145.69;51.17;52099.81;5100885;27;20279;-80
2023/09/25 09:24:52;;;;;;;4.40;1.50;;;;;;;-145.69;52.50;52101.78;5118382;27;20192;-79
2023/09/25 09:27:21;;;;;;;2.92;1.40;;;;;;;-145.69;51.20;52068.13;5116273;27;20718;-79
2023/09/25 09:29:49;;;;;;;2.08;1.20;;;;;;;-145.69;51.16;52113.66;5112802;28;20604;-79
2023/09/25 09:32:15;;;;;;;2.45;1.52;;;;;;;-145.69;51.03;52078.03;5113266;28;20201;-79
2023/09/25 09:34:42;;;;;;;4.50;1.40;;;;;;;-145.69;50.29;52078.03;5113681;28;20197;-79
2023/09/25 09:37:13;;;;;;;3.08;1.50;;;;;;;-145.69;49.89;52064.16;5115558;27;20301;-79
2023/09/25 09:39:45;;;;;;;2.78;1.40;;;;;;;-145.69;49.07;52095.84;5113329;28;20193;-80
2023/09/25 09:42:15;;;;;;;2.15;1.40;;;;;;;-145.69;50.02;52070.09;5113499;28;20283;-79
2023/09/25 09:44:43;;;;;;;4.90;1.58;;;;;;;-145.69;48.74;52099.81;5113414;28;20292;-79
2023/09/25 09:47:12;;;;;;;4.03;1.35;;;;;;;-145.69;49.01;52107.72;5127837;27;20201;-80
2023/09/25 09:49:40;;;;;;;6.82;1.20;;;;;;;-145.69;48.84;52066.16;5125911;27;20233;-80
2023/09/25 09:52:07;;;;;;;6.90;1.50;;;;;;;-145.69;48.58;52068.13;5092873;28;20716;-79
2023/09/25 09:54:40;;;;;;;2.65;1.10;;;;;;;-145.69;47.62;52111.69;5092944;28;20194;-79
2023/09/25 09:57:07;;;;;;;2.70;1.50;;;;;;;-145.69;47.83;52064.16;5121737;28;20284;-80
2023/09/25 09:59:33;;;;;;;2.28;1.40;;;;;;;-145.69;47.90;52083.97;5129608;27;20493;-79
2023/09/25 10:02:03;;;;;;;4.05;1.73;;;;;;;-145.69;47.97;52050.31;5133827;27;20200;-79
2023/09/25 10:04:30;;;;;;;3.90;1.50;;;;;;;-145.69;48.36;52105.75;5127147;27;20201;-79
2023/09/25 10:07:00;;;;;;;4.38;1.70;;;;;;;-145.69;47.98;52032.47;5113398;28;20285;-80
2023/09/25 10:09:31;;;;;;;3.85;1.50;;;;;;;-145.69;47.62;52060.22;5113086;28;20225;-79
2023/09/25 10:11:59;;;;;;;2.92;1.50;;;;;;;-145.69;47.45;52083.97;5131445;28;20189;-80
2023/09/25 10:14:29;;;;;;;4.97;1.70;;;;;;;-145.69;47.22;52048.31;5128703;27;20200;-79
2023/09/25 10:17:00;;;;;;;7.30;1.73;;;;;;;-145.69;48.01;52040.41;5114533;28;20190;-79
2023/09/25 10:19:47;;;;;;;3.85;1.80;;;;;;;-145.69;46.71;52074.06;5112510;28;20584;-79
2023/09/25 10:22:19;;;;;;;4.32;1.70;;;;;;;-145.69;47.22;52056.25;5115236;27;20204;-79
2023/09/25 10:24:47;;;;;;;5.30;2.00;;;;;;;-145.69;46.80;52042.38;5124447;27;20200;-79
2023/09/25 10:27:18;;;;;;;5.47;1.88;;;;;;;-145.69;46.70;52050.31;5137546;27;20201;-80
2023/09/25 10:30:11;;;;;;;10.00;1.90;;;;;;;-145.69;47.38;52052.28;5137720;27;20235;-81
2023/09/25 10:32:40;;;;;;;4.95;1.73;;;;;;;-145.69;47.32;52048.31;5138424;27;20658;-83
2023/09/25 10:35:39;;;;;;;5.97;2.10;;;;;;;-145.69;47.69;52036.44;5122708;27;20206;-80
2023/09/25 10:38:19;;;;;;;8.13;1.85;;;;;;;-145.69;46.84;52060.22;5113060;28;20201;-81
2023/09/25 10:40:49;;;;;;;6.38;2.42;;;;;;;-145.69;47.68;52074.06;5116552;28;20663;-79
2023/09/25 10:43:18;;;;;;;4.22;1.75;;;;;;;-145.69;47.16;52048.31;5116426;27;20280;-80
2023/09/25 10:45:44;;;;;;;3.38;1.77;;;;;;;-145.69;47.55;52070.09;5131567;27;20288;-81
2023/09/25 10:48:11;;;;;;;4.28;1.90;;;;;;;-145.69;47.16;52034.47;5114416;27;20217;-81
2023/09/25 10:50:38;;;;;;;5.60;1.75;;;;;;;-145.69;46.88;52040.41;5108224;27;20242;-80
2023/09/25 10:53:06;;;;;;;4.28;1.73;;;;;;;-145.69;46.76;52038.44;5122181;27;20272;-81
2023/09/25 10:55:33;;;;;;;4.03;1.95;;;;;;;-145.69;46.88;52036.44;5128137;27;20205;-81
2023/09/25 10:58:00;;;;;;;3.58;1.65;;;;;;;-145.69;46.79;52068.13;5112145;28;20190;-81
2023/09/25 11:00:29;;;;;;;3.25;1.60;;;;;;;-145.69;46.61;52044.38;5095584;28;20216;-81
2023/09/25 11:02:55;;;;;;;3.88;1.80;;;;;;;-145.69;45.94;52034.47;5099173;27;20676;-80
2023/09/25 11:05:22;;;;;;;2.92;1.60;;;;;;;-145.69;45.87;52056.25;5122268;27;20204;-80
2023/09/25 11:07:49;;;;;;;3.65;1.40;;;;;;;-145.69;46.14;52012.69;5098535;28;20235;-81
2023/09/25 11:10:16;;;;;;;3.20;1.70;;;;;;;-145.69;45.19;52024.56;5116260;27;20263;-80
2023/09/25 11:12:43;;;;;;;4.10;1.60;;;;;;;-145.69;45.82;52036.44;5131475;27;20548;-80
2023/09/25 11:15:12;;;;;;;3.55;1.70;;;;;;;-145.69;46.18;52038.44;5095781;28;20206;-84
2023/09/25 11:17:40;;;;;;;3.28;1.48;;;;;;;-145.69;46.14;52048.31;5095125;28;20232;-81
2023/09/25 11:20:12;;;;;;;9.68;1.30;;;;;;;-145.69;46.07;52030.50;5095459;28;20545;-79